Time;durP1;ratioP1;P1;durP2;ratioP2;P2;SDS_P1;SDS_P2;PMS_P1;PMS_P2;Temp;Humidity;BMP_temperature;BMP_pressure;BME280_temperature;BME280_humidity;BME280_pressure;Samples;Min_cycle;Max_cycle;Signal;HPM_P1;HPM_P2
2021/06/19 00:00:34;;;;;;;9.38;5.88;;;;;;;;;;5055872;28;20171;-72
2021/06/19 00:02:59;;;;;;;7.97;5.80;;;;;;;;;;5055250;28;20053;-72
2021/06/19 00:05:25;;;;;;;8.65;5.35;;;;;;;;;;5055544;28;20478;-71
2021/06/19 00:07:51;;;;;;;8.50;5.70;;;;;;;;;;5055546;28;20053;-73
2021/06/19 00:10:17;;;;;;;6.95;5.13;;;;;;;;;;5055286;28;20469;-71
2021/06/19 00:12:43;;;;;;;7.85;5.63;;;;;;;;;;5055381;28;20017;-72
2021/06/19 00:15:09;;;;;;;7.70;5.30;;;;;;;;;;5055165;28;20441;-72
2021/06/19 00:17:35;;;;;;;8.00;5.50;;;;;;;;;;5055579;28;20025;-72
2021/06/19 00:20:01;;;;;;;7.55;5.82;;;;;;;;;;5055154;28;20060;-72
2021/06/19 00:22:26;;;;;;;7.90;5.30;;;;;;;;;;5055093;28;20070;-72
2021/06/19 00:24:52;;;;;;;12.02;5.82;;;;;;;;;;5055218;28;20485;-72
2021/06/19 00:27:18;;;;;;;9.13;6.22;;;;;;;;;;5037086;28;20027;-72
2021/06/19 00:29:43;;;;;;;9.30;5.57;;;;;;;;;;5037385;28;20017;-72
2021/06/19 00:32:09;;;;;;;16.08;7.25;;;;;;;;;;5037188;28;20044;-73
2021/06/19 00:34:34;;;;;;;9.18;5.68;;;;;;;;;;5037479;28;20009;-71
2021/06/19 00:36:59;;;;;;;10.82;6.20;;;;;;;;;;5054778;28;20021;-72
2021/06/19 00:39:25;;;;;;;9.65;6.50;;;;;;;;;;5054940;28;20051;-72
2021/06/19 00:41:50;;;;;;;7.30;5.75;;;;;;;;;;5054994;28;20025;-72
2021/06/19 00:44:17;;;;;;;10.48;6.30;;;;;;;;;;5054776;28;20082;-72
2021/06/19 00:46:43;;;;;;;9.25;5.15;;;;;;;;;;5054824;28;20366;-71
2021/06/19 00:49:08;;;;;;;8.05;5.28;;;;;;;;;;5054526;28;20024;-72
2021/06/19 00:51:34;;;;;;;9.20;4.97;;;;;;;;;;5054609;28;20429;-71
2021/06/19 00:53:59;;;;;;;8.00;5.53;;;;;;;;;;5054691;28;20025;-72
2021/06/19 00:56:25;;;;;;;13.00;6.10;;;;;;;;;;5054639;28;20048;-72
2021/06/19 00:58:51;;;;;;;9.52;6.32;;;;;;;;;;5053616;28;20108;-71
2021/06/19 01:01:16;;;;;;;10.15;5.97;;;;;;;;;;5054302;28;20096;-71
2021/06/19 01:03:42;;;;;;;7.70;5.57;;;;;;;;;;5054497;28;20021;-71
2021/06/19 01:06:08;;;;;;;10.70;5.60;;;;;;;;;;5054448;28;20374;-71
2021/06/19 01:08:33;;;;;;;13.23;5.97;;;;;;;;;;5036615;28;20032;-72
2021/06/19 01:10:59;;;;;;;8.18;5.45;;;;;;;;;;5054080;28;20029;-72
2021/06/19 01:13:25;;;;;;;7.45;5.45;;;;;;;;;;5054253;28;20021;-72
2021/06/19 01:15:50;;;;;;;9.55;6.03;;;;;;;;;;5054325;28;20017;-73
2021/06/19 01:18:15;;;;;;;7.95;5.28;;;;;;;;;;5036263;28;20059;-71
2021/06/19 01:20:41;;;;;;;8.30;5.80;;;;;;;;;;5054118;28;20068;-70
2021/06/19 01:23:07;;;;;;;8.82;6.65;;;;;;;;;;5053892;28;20090;-72
2021/06/19 01:25:34;;;;;;;12.32;5.65;;;;;;;;;;5036229;28;20377;-71
2021/06/19 01:28:01;;;;;;;7.75;5.68;;;;;;;;;;5054013;28;20101;-72
2021/06/19 01:30:28;;;;;;;6.50;5.40;;;;;;;;;;5053929;28;20021;-72
2021/06/19 01:32:54;;;;;;;8.15;5.40;;;;;;;;;;5053924;28;20021;-72
2021/06/19 01:35:20;;;;;;;6.70;5.03;;;;;;;;;;5019335;28;20032;-71
2021/06/19 01:37:46;;;;;;;9.00;5.75;;;;;;;;;;5053873;28;20044;-72
2021/06/19 01:40:13;;;;;;;13.38;5.50;;;;;;;;;;5053566;28;20496;-71
2021/06/19 01:42:39;;;;;;;7.32;5.32;;;;;;;;;;5031973;28;20029;-72
2021/06/19 01:45:06;;;;;;;7.65;5.50;;;;;;;;;;5033559;28;20105;-72
2021/06/19 01:47:31;;;;;;;6.75;5.60;;;;;;;;;;5035746;28;20108;-72
2021/06/19 01:49:57;;;;;;;10.30;6.63;;;;;;;;;;5053469;28;20108;-71
2021/06/19 01:52:22;;;;;;;9.30;6.28;;;;;;;;;;5053493;28;20576;-71
2021/06/19 01:54:48;;;;;;;10.43;5.85;;;;;;;;;;5053745;28;20390;-71
2021/06/19 01:57:13;;;;;;;8.07;5.68;;;;;;;;;;5035418;28;20020;-71
2021/06/19 01:59:38;;;;;;;6.80;4.78;;;;;;;;;;5053582;28;20021;-71
2021/06/19 02:02:04;;;;;;;10.75;5.78;;;;;;;;;;5035505;28;20021;-72
2021/06/19 02:04:32;;;;;;;10.07;6.15;;;;;;;;;;5053856;28;20483;-71
2021/06/19 02:06:58;;;;;;;7.80;5.50;;;;;;;;;;5053169;28;20083;-72
2021/06/19 02:09:23;;;;;;;7.53;5.90;;;;;;;;;;5035274;28;20080;-71
2021/06/19 02:11:49;;;;;;;10.88;5.53;;;;;;;;;;5035218;28;20549;-73
2021/06/19 02:14:15;;;;;;;8.68;6.07;;;;;;;;;;5053124;28;20025;-71
2021/06/19 02:16:42;;;;;;;9.52;6.20;;;;;;;;;;5035367;28;20021;-71
2021/06/19 02:19:07;;;;;;;6.90;5.63;;;;;;;;;;5018634;28;20017;-72
2021/06/19 02:21:33;;;;;;;7.97;5.88;;;;;;;;;;5052800;28;20456;-71
2021/06/19 02:23:58;;;;;;;9.77;5.68;;;;;;;;;;5052960;28;20025;-72
2021/06/19 02:26:24;;;;;;;8.98;6.30;;;;;;;;;;5052994;28;20025;-71
2021/06/19 02:28:49;;;;;;;9.05;6.03;;;;;;;;;;5053067;28;20036;-71
2021/06/19 02:31:15;;;;;;;9.20;6.85;;;;;;;;;;5052532;28;20434;-71
2021/06/19 02:33:41;;;;;;;11.18;6.22;;;;;;;;;;5052902;28;20024;-72
2021/06/19 02:36:06;;;;;;;9.20;6.63;;;;;;;;;;5052789;28;20092;-71
2021/06/19 02:38:32;;;;;;;9.57;6.65;;;;;;;;;;5052875;28;20469;-71
2021/06/19 02:40:58;;;;;;;9.23;6.35;;;;;;;;;;5052621;28;20491;-72
2021/06/19 02:43:23;;;;;;;9.48;6.55;;;;;;;;;;5052821;28;20021;-71
2021/06/19 02:45:49;;;;;;;8.88;6.63;;;;;;;;;;5052736;28;20401;-71
2021/06/19 02:48:15;;;;;;;9.60;6.32;;;;;;;;;;5052676;28;20051;-70
2021/06/19 02:50:41;;;;;;;12.95;6.72;;;;;;;;;;5052650;28;20481;-70
2021/06/19 02:53:07;;;;;;;9.18;6.82;;;;;;;;;;5034550;28;20017;-71
2021/06/19 02:55:34;;;;;;;8.05;6.43;;;;;;;;;;5034612;28;20055;-71
2021/06/19 02:58:01;;;;;;;7.72;6.38;;;;;;;;;;5052615;28;20017;-72
2021/06/19 03:00:26;;;;;;;9.00;6.72;;;;;;;;;;5034723;28;20019;-71
2021/06/19 03:02:52;;;;;;;10.57;6.82;;;;;;;;;;5052600;28;20388;-71
2021/06/19 03:05:22;;;;;;;7.95;5.90;;;;;;;;;;5052196;28;20021;-70
2021/06/19 03:07:48;;;;;;;9.55;7.43;;;;;;;;;;5052510;28;20130;-71
2021/06/19 03:10:15;;;;;;;7.47;5.97;;;;;;;;;;5052302;28;20116;-70
2021/06/19 03:12:41;;;;;;;8.63;6.80;;;;;;;;;;5052485;28;20017;-71
2021/06/19 03:15:07;;;;;;;7.40;5.65;;;;;;;;;;5052146;28;20066;-72
2021/06/19 03:17:33;;;;;;;10.10;6.28;;;;;;;;;;5052497;28;20095;-72
2021/06/19 03:19:58;;;;;;;8.23;5.72;;;;;;;;;;5052107;28;20037;-71
2021/06/19 03:22:24;;;;;;;10.45;6.72;;;;;;;;;;5056042;28;20017;-71
2021/06/19 03:24:49;;;;;;;7.30;5.82;;;;;;;;;;5056433;28;20151;-71
2021/06/19 03:27:16;;;;;;;8.43;5.90;;;;;;;;;;5038089;28;20106;-71
2021/06/19 03:29:41;;;;;;;11.75;6.32;;;;;;;;;;5038376;28;20377;-71
2021/06/19 03:32:07;;;;;;;10.88;6.07;;;;;;;;;;5056130;28;20021;-72
2021/06/19 03:34:33;;;;;;;6.72;5.65;;;;;;;;;;5056105;28;20036;-70
2021/06/19 03:37:00;;;;;;;8.00;5.72;;;;;;;;;;5055917;28;20017;-72
2021/06/19 03:39:26;;;;;;;9.05;6.28;;;;;;;;;;5056278;28;20017;-72
2021/06/19 03:41:51;;;;;;;10.35;5.80;;;;;;;;;;5056131;28;20028;-72
2021/06/19 03:44:17;;;;;;;10.77;5.72;;;;;;;;;;5055947;28;20393;-72
2021/06/19 03:46:42;;;;;;;8.18;5.72;;;;;;;;;;5056086;28;20060;-72
2021/06/19 03:49:08;;;;;;;11.65;6.47;;;;;;;;;;5055580;28;20016;-70
2021/06/19 03:51:33;;;;;;;6.57;5.40;;;;;;;;;;5038117;28;20025;-71
2021/06/19 03:53:59;;;;;;;9.38;6.75;;;;;;;;;;5055836;28;20056;-72
2021/06/19 03:56:24;;;;;;;7.93;6.38;;;;;;;;;;5037916;28;20100;-71
2021/06/19 03:58:49;;;;;;;10.20;6.32;;;;;;;;;;5055823;28;20017;-72
2021/06/19 04:01:15;;;;;;;12.07;6.50;;;;;;;;;;5055279;28;20021;-72
2021/06/19 04:03:40;;;;;;;8.63;5.85;;;;;;;;;;5037657;28;20032;-72
2021/06/19 04:06:06;;;;;;;7.70;5.60;;;;;;;;;;5055467;28;20148;-72
2021/06/19 04:08:31;;;;;;;8.20;5.53;;;;;;;;;;5055559;28;20043;-72
2021/06/19 04:10:57;;;;;;;8.55;5.82;;;;;;;;;;5055265;28;20024;-73
2021/06/19 04:13:22;;;;;;;7.57;5.38;;;;;;;;;;5037608;28;20021;-72
2021/06/19 04:15:48;;;;;;;7.93;5.10;;;;;;;;;;5055506;28;20013;-73
2021/06/19 04:18:13;;;;;;;8.10;5.03;;;;;;;;;;5055330;28;20588;-73
2021/06/19 04:20:39;;;;;;;8.45;5.28;;;;;;;;;;5055209;28;20051;-72
2021/06/19 04:23:04;;;;;;;12.05;4.88;;;;;;;;;;5037652;28;20092;-74
2021/06/19 04:25:29;;;;;;;8.32;4.95;;;;;;;;;;5055457;28;20480;-73
2021/06/19 04:27:57;;;;;;;6.72;4.93;;;;;;;;;;5037302;28;20028;-74
2021/06/19 04:30:23;;;;;;;9.60;4.72;;;;;;;;;;5037203;28;20024;-73
2021/06/19 04:32:48;;;;;;;7.80;5.00;;;;;;;;;;5019588;28;20419;-74
2021/06/19 04:35:14;;;;;;;10.32;4.72;;;;;;;;;;5054724;28;20027;-72
2021/06/19 04:37:39;;;;;;;7.53;4.55;;;;;;;;;;5037328;28;20013;-73
2021/06/19 04:40:14;;;;;;;7.45;4.25;;;;;;;;;;5054831;28;20025;-73
2021/06/19 04:42:42;;;;;;;16.08;5.25;;;;;;;;;;5037092;28;20377;-73
2021/06/19 04:45:10;;;;;;;8.33;4.67;;;;;;;;;;5054568;28;20021;-74
2021/06/19 04:47:36;;;;;;;5.18;4.20;;;;;;;;;;5054728;28;20021;-74
2021/06/19 04:50:04;;;;;;;7.68;4.88;;;;;;;;;;5054599;28;20028;-74
2021/06/19 04:52:33;;;;;;;7.47;4.00;;;;;;;;;;5054702;28;20021;-74
2021/06/19 04:54:59;;;;;;;6.53;4.85;;;;;;;;;;5036751;28;20435;-73
2021/06/19 04:57:24;;;;;;;9.05;4.18;;;;;;;;;;5054652;28;20107;-74
2021/06/19 04:59:50;;;;;;;9.02;4.20;;;;;;;;;;5036855;28;20473;-74
2021/06/19 05:02:15;;;;;;;9.40;3.97;;;;;;;;;;5054419;28;20028;-74
2021/06/19 05:04:41;;;;;;;7.22;4.10;;;;;;;;;;5054455;28;20020;-74
2021/06/19 05:07:07;;;;;;;12.27;4.00;;;;;;;;;;5054204;28;20020;-74
2021/06/19 05:09:32;;;;;;;4.40;3.50;;;;;;;;;;5036609;28;20013;-75
2021/06/19 05:11:58;;;;;;;5.85;4.13;;;;;;;;;;5036418;28;20108;-75
2021/06/19 05:14:23;;;;;;;8.95;4.05;;;;;;;;;;5036492;28;20055;-75
2021/06/19 05:16:49;;;;;;;10.77;3.70;;;;;;;;;;5036483;28;20033;-75
2021/06/19 05:19:17;;;;;;;6.32;3.83;;;;;;;;;;5053749;28;20433;-75
2021/06/19 05:21:42;;;;;;;7.65;3.88;;;;;;;;;;5054069;28;20060;-74
2021/06/19 05:24:08;;;;;;;7.72;3.40;;;;;;;;;;5036340;28;20095;-75
2021/06/19 05:26:34;;;;;;;7.70;3.40;;;;;;;;;;5054006;28;20021;-75
2021/06/19 05:28:59;;;;;;;5.65;3.58;;;;;;;;;;5053861;28;20083;-75
2021/06/19 05:31:25;;;;;;;9.30;3.90;;;;;;;;;;5053907;28;20040;-74
2021/06/19 05:33:51;;;;;;;7.13;3.60;;;;;;;;;;5053791;28;20032;-75
2021/06/19 05:36:16;;;;;;;7.10;3.42;;;;;;;;;;5053823;28;20537;-74
2021/06/19 05:38:42;;;;;;;6.60;3.35;;;;;;;;;;5036399;28;20017;-74
2021/06/19 05:41:07;;;;;;;6.00;3.33;;;;;;;;;;5053502;28;20017;-74
2021/06/19 05:43:32;;;;;;;5.03;3.33;;;;;;;;;;5053190;28;20025;-74
2021/06/19 05:45:58;;;;;;;3.67;3.20;;;;;;;;;;5053704;28;20017;-75
2021/06/19 05:48:23;;;;;;;6.82;3.40;;;;;;;;;;5035855;28;20187;-74
2021/06/19 05:50:49;;;;;;;8.45;3.42;;;;;;;;;;5019337;28;20095;-75
2021/06/19 05:53:14;;;;;;;7.47;3.50;;;;;;;;;;5035403;28;20020;-75
2021/06/19 05:55:40;;;;;;;10.13;3.67;;;;;;;;;;5053517;28;20388;-74
2021/06/19 05:58:08;;;;;;;10.43;3.88;;;;;;;;;;5019126;28;20108;-74
2021/06/19 06:00:34;;;;;;;6.15;2.88;;;;;;;;;;5053593;28;20104;-74
2021/06/19 06:02:59;;;;;;;5.30;3.17;;;;;;;;;;5053081;28;20100;-72
2021/06/19 06:05:24;;;;;;;3.95;3.25;;;;;;;;;;5053197;28;20021;-74
2021/06/19 06:07:50;;;;;;;5.40;3.22;;;;;;;;;;5053446;28;20052;-75
2021/06/19 06:10:16;;;;;;;6.97;3.65;;;;;;;;;;5035275;28;20542;-72
2021/06/19 06:12:42;;;;;;;4.40;3.00;;;;;;;;;;5053427;28;20028;-74
2021/06/19 06:15:08;;;;;;;5.50;2.95;;;;;;;;;;5052888;28;20024;-74
2021/06/19 06:17:33;;;;;;;11.90;3.97;;;;;;;;;;5053187;28;20017;-73
2021/06/19 06:19:59;;;;;;;12.73;3.70;;;;;;;;;;5053109;28;20049;-73
2021/06/19 06:22:24;;;;;;;16.98;3.67;;;;;;;;;;5053032;28;20477;-73
2021/06/19 06:24:50;;;;;;;7.55;3.30;;;;;;;;;;5053157;28;20013;-73
2021/06/19 06:27:15;;;;;;;6.85;3.22;;;;;;;;;;5034704;28;20078;-73
2021/06/19 06:29:41;;;;;;;4.35;2.85;;;;;;;;;;5053120;28;20429;-73
2021/06/19 06:32:06;;;;;;;7.80;3.20;;;;;;;;;;5052858;28;20025;-74
2021/06/19 06:34:32;;;;;;;4.82;3.38;;;;;;;;;;5034916;28;20044;-73
2021/06/19 06:36:57;;;;;;;5.40;2.67;;;;;;;;;;5052611;28;20048;-74
2021/06/19 06:39:23;;;;;;;7.47;3.17;;;;;;;;;;5035223;28;20021;-74
2021/06/19 06:41:48;;;;;;;6.00;3.13;;;;;;;;;;5052877;28;20515;-74
2021/06/19 06:44:13;;;;;;;9.82;3.78;;;;;;;;;;5052742;28;20025;-74
2021/06/19 06:46:39;;;;;;;12.77;3.25;;;;;;;;;;5052702;28;20017;-74
2021/06/19 06:49:04;;;;;;;9.35;3.15;;;;;;;;;;5052426;28;20381;-73
2021/06/19 06:51:33;;;;;;;4.80;2.90;;;;;;;;;;5018533;28;20033;-74
2021/06/19 06:53:58;;;;;;;7.55;3.15;;;;;;;;;;5034997;28;20013;-74
2021/06/19 06:56:23;;;;;;;10.27;3.28;;;;;;;;;;5034082;28;20066;-74
2021/06/19 06:58:49;;;;;;;6.80;3.15;;;;;;;;;;5034818;28;20090;-73
2021/06/19 07:01:14;;;;;;;7.28;3.45;;;;;;;;;;5052340;28;20017;-74
2021/06/19 07:03:41;;;;;;;4.97;2.90;;;;;;;;;;5052403;28;20103;-74
2021/06/19 07:06:06;;;;;;;9.45;2.42;;;;;;;;;;5052497;28;20025;-75
2021/06/19 07:08:31;;;;;;;4.75;2.80;;;;;;;;;;5052427;28;20043;-74
2021/06/19 07:10:57;;;;;;;13.77;3.78;;;;;;;;;;5034360;28;20503;-74
2021/06/19 07:13:23;;;;;;;4.40;2.90;;;;;;;;;;5034619;28;20017;-74
2021/06/19 07:15:48;;;;;;;6.82;2.97;;;;;;;;;;5052537;28;20021;-75
2021/06/19 07:18:13;;;;;;;4.80;2.97;;;;;;;;;;5034307;28;20021;-74
2021/06/19 07:20:39;;;;;;;7.03;2.90;;;;;;;;;;5052300;28;20408;-75
2021/06/19 07:23:05;;;;;;;5.80;2.92;;;;;;;;;;5030285;28;20017;-75
2021/06/19 07:25:30;;;;;;;6.22;2.70;;;;;;;;;;5051081;28;20033;-75
2021/06/19 07:27:58;;;;;;;9.00;3.08;;;;;;;;;;5052529;28;20055;-74
2021/06/19 07:30:24;;;;;;;4.90;2.50;;;;;;;;;;5052299;28;20558;-74
2021/06/19 07:32:49;;;;;;;7.30;2.53;;;;;;;;;;5052161;28;20112;-75
2021/06/19 07:35:16;;;;;;;7.32;2.67;;;;;;;;;;5051990;28;20830;-74
2021/06/19 07:37:41;;;;;;;7.68;3.05;;;;;;;;;;5052449;28;20028;-73
2021/06/19 07:40:07;;;;;;;7.65;2.80;;;;;;;;;;5052242;28;20026;-74
2021/06/19 07:42:35;;;;;;;8.20;2.80;;;;;;;;;;5052072;28;20028;-74
2021/06/19 07:45:01;;;;;;;10.65;2.47;;;;;;;;;;5052162;28;20029;-74
2021/06/19 07:47:26;;;;;;;5.07;2.33;;;;;;;;;;5052174;28;20023;-74
2021/06/19 07:49:52;;;;;;;3.65;2.20;;;;;;;;;;5052336;28;20017;-74
2021/06/19 07:52:17;;;;;;;2.75;2.15;;;;;;;;;;5051969;28;20096;-72
2021/06/19 07:54:42;;;;;;;3.97;2.30;;;;;;;;;;5052030;28;20445;-73
2021/06/19 07:57:08;;;;;;;4.00;2.22;;;;;;;;;;5051885;28;20096;-74
2021/06/19 07:59:34;;;;;;;5.20;2.15;;;;;;;;;;5034754;28;20016;-74
2021/06/19 08:02:00;;;;;;;4.57;2.50;;;;;;;;;;5051986;28;20024;-74
2021/06/19 08:04:25;;;;;;;3.10;2.35;;;;;;;;;;5051775;28;20100;-74
2021/06/19 08:06:51;;;;;;;8.50;2.37;;;;;;;;;;5053035;28;20146;-75
2021/06/19 08:09:16;;;;;;;3.85;2.13;;;;;;;;;;5055349;28;20261;-74
2021/06/19 08:11:42;;;;;;;2.60;2.05;;;;;;;;;;5055446;28;20389;-73
2021/06/19 08:14:08;;;;;;;9.23;2.10;;;;;;;;;;5055707;28;20021;-74
2021/06/19 08:16:33;;;;;;;2.70;2.28;;;;;;;;;;5055282;28;20354;-74
2021/06/19 08:18:59;;;;;;;5.15;2.15;;;;;;;;;;5055135;28;20413;-74
2021/06/19 08:21:25;;;;;;;9.25;2.15;;;;;;;;;;5055262;28;20128;-75
2021/06/19 08:23:50;;;;;;;4.18;2.20;;;;;;;;;;5055312;28;20044;-75
2021/06/19 08:26:15;;;;;;;3.17;2.00;;;;;;;;;;5055063;28;20067;-74
2021/06/19 08:28:41;;;;;;;5.57;1.80;;;;;;;;;;5055216;28;20021;-73
2021/06/19 08:31:06;;;;;;;3.05;2.05;;;;;;;;;;5055134;28;20372;-74
2021/06/19 08:33:31;;;;;;;7.82;2.20;;;;;;;;;;5055061;28;20021;-75
2021/06/19 08:35:57;;;;;;;2.28;1.63;;;;;;;;;;5055050;28;20025;-75
2021/06/19 08:38:23;;;;;;;10.55;2.50;;;;;;;;;;5037184;28;20053;-75
2021/06/19 08:40:48;;;;;;;3.22;2.20;;;;;;;;;;5055014;28;20047;-76
2021/06/19 08:43:14;;;;;;;3.05;1.70;;;;;;;;;;5054767;28;20021;-75
2021/06/19 08:45:39;;;;;;;3.38;2.05;;;;;;;;;;5054955;28;20445;-74
2021/06/19 08:48:05;;;;;;;5.55;2.03;;;;;;;;;;5054717;28;20021;-73
2021/06/19 08:50:31;;;;;;;6.28;2.17;;;;;;;;;;5054664;28;20385;-75
2021/06/19 08:53:00;;;;;;;5.60;2.03;;;;;;;;;;5054607;28;20017;-75
2021/06/19 08:55:26;;;;;;;3.60;1.80;;;;;;;;;;5054891;28;20382;-75
2021/06/19 08:57:51;;;;;;;3.95;1.90;;;;;;;;;;5054980;28;20028;-75
2021/06/19 09:00:17;;;;;;;3.30;1.92;;;;;;;;;;5054590;28;20028;-74
2021/06/19 09:02:43;;;;;;;3.97;1.80;;;;;;;;;;5054458;28;20501;-73
2021/06/19 09:05:12;;;;;;;7.80;1.85;;;;;;;;;;5054553;28;20375;-74
2021/06/19 09:07:46;;;;;;;5.25;2.10;;;;;;;;;;5054524;28;20017;-74
2021/06/19 09:10:31;;;;;;;11.30;2.03;;;;;;;;;;5054332;28;20035;-75
2021/06/19 09:12:58;;;;;;;5.43;2.17;;;;;;;;;;5054160;28;20040;-75
2021/06/19 09:15:24;;;;;;;3.63;1.92;;;;;;;;;;5054179;28;20082;-75
2021/06/19 09:18:02;;;;;;;3.90;2.05;;;;;;;;;;5054043;28;20024;-75
2021/06/19 09:20:32;;;;;;;2.63;1.88;;;;;;;;;;5054119;28;20459;-75
2021/06/19 09:23:02;;;;;;;3.95;2.10;;;;;;;;;;5054112;28;20033;-75
2021/06/19 09:25:27;;;;;;;4.38;2.10;;;;;;;;;;5054157;28;20025;-75
2021/06/19 09:27:53;;;;;;;5.30;2.03;;;;;;;;;;5036140;28;20021;-75
2021/06/19 09:30:20;;;;;;;3.13;2.38;;;;;;;;;;5053929;28;20242;-75
2021/06/19 09:32:52;;;;;;;7.03;1.98;;;;;;;;;;5054195;28;20495;-74
2021/06/19 09:35:25;;;;;;;5.15;2.08;;;;;;;;;;5031960;28;20387;-75
2021/06/19 09:37:52;;;;;;;4.63;2.08;;;;;;;;;;5033243;28;20043;-75
2021/06/19 09:40:19;;;;;;;4.00;2.15;;;;;;;;;;5053844;28;20028;-75
2021/06/19 09:42:44;;;;;;;3.80;2.05;;;;;;;;;;5053685;28;20079;-73
2021/06/19 09:45:17;;;;;;;4.18;2.03;;;;;;;;;;5053416;28;20021;-75
2021/06/19 09:47:42;;;;;;;5.57;2.05;;;;;;;;;;5053643;28;20063;-74
2021/06/19 09:50:09;;;;;;;6.28;1.90;;;;;;;;;;5053610;28;20024;-74
2021/06/19 09:52:34;;;;;;;4.57;2.28;;;;;;;;;;5053565;28;20378;-75
2021/06/19 09:55:00;;;;;;;5.53;2.08;;;;;;;;;;5053394;28;20017;-75
2021/06/19 09:57:32;;;;;;;10.48;2.45;;;;;;;;;;5053351;28;20095;-74
2021/06/19 10:00:00;;;;;;;7.75;2.10;;;;;;;;;;5053499;28;20012;-74
2021/06/19 10:02:30;;;;;;;2.13;1.77;;;;;;;;;;5053312;28;20017;-75
2021/06/19 10:04:56;;;;;;;7.05;2.20;;;;;;;;;;5053517;28;20384;-74
2021/06/19 10:07:23;;;;;;;7.15;2.05;;;;;;;;;;5036023;28;20028;-74
2021/06/19 10:09:49;;;;;;;4.93;2.00;;;;;;;;;;5053222;28;20013;-74
2021/06/19 10:12:18;;;;;;;2.63;2.08;;;;;;;;;;5053324;28;20028;-75
2021/06/19 10:14:44;;;;;;;6.10;2.17;;;;;;;;;;5053299;28;20021;-74
2021/06/19 10:17:10;;;;;;;7.15;1.70;;;;;;;;;;5052841;28;20477;-76
2021/06/19 10:19:36;;;;;;;6.35;2.30;;;;;;;;;;5052983;28;20013;-76
2021/06/19 10:22:01;;;;;;;6.88;2.05;;;;;;;;;;5035240;28;20032;-76
2021/06/19 10:24:26;;;;;;;5.90;2.20;;;;;;;;;;5052985;28;20028;-76
2021/06/19 10:26:52;;;;;;;11.57;1.95;;;;;;;;;;5053101;28;20474;-76
2021/06/19 10:29:18;;;;;;;4.32;2.00;;;;;;;;;;5052818;28;20028;-76
2021/06/19 10:31:51;;;;;;;5.50;2.10;;;;;;;;;;5052915;28;20017;-74
2021/06/19 10:34:21;;;;;;;2.78;2.00;;;;;;;;;;5052819;28;20102;-75
2021/06/19 10:36:47;;;;;;;9.25;2.00;;;;;;;;;;5052965;28;20024;-75
2021/06/19 10:39:15;;;;;;;7.70;2.22;;;;;;;;;;5052506;28;20024;-75
2021/06/19 10:41:41;;;;;;;;;;;;;;;;;;5053504;28;20406;-74
2021/06/19 10:44:06;;;;;;;5.82;1.88;;;;;;;;;;5052855;28;19904;-76
2021/06/19 10:46:35;;;;;;;5.82;1.75;;;;;;;;;;5052830;28;20039;-75
2021/06/19 10:49:02;;;;;;;4.07;1.90;;;;;;;;;;5052513;28;20032;-76
2021/06/19 10:51:30;;;;;;;6.18;1.92;;;;;;;;;;5052464;28;20358;-75
2021/06/19 10:54:11;;;;;;;5.63;2.17;;;;;;;;;;5052631;28;20052;-75
2021/06/19 10:56:49;;;;;;;4.85;1.80;;;;;;;;;;5052646;28;20238;-75
2021/06/19 10:59:16;;;;;;;3.20;1.73;;;;;;;;;;5052275;28;20017;-77
2021/06/19 11:01:41;;;;;;;9.80;2.17;;;;;;;;;;5052518;28;20503;-74
2021/06/19 11:04:27;;;;;;;4.32;2.03;;;;;;;;;;5052445;28;20024;-73
2021/06/19 11:06:52;;;;;;;6.72;2.30;;;;;;;;;;5030654;28;20485;-75
2021/06/19 11:09:25;;;;;;;3.67;1.92;;;;;;;;;;5048512;28;20028;-75
2021/06/19 11:11:56;;;;;;;4.35;1.95;;;;;;;;;;5052473;28;20017;-75
2021/06/19 11:14:47;;;;;;;11.30;2.15;;;;;;;;;;5052496;28;20009;-75
2021/06/19 11:17:31;;;;;;;4.68;2.10;;;;;;;;;;5052546;28;20025;-74
2021/06/19 11:19:59;;;;;;;2.78;1.95;;;;;;;;;;5052316;28;20179;-75
2021/06/19 11:22:25;;;;;;;;;;;;;;;;;;5052887;28;20017;-75
2021/06/19 11:25:09;;;;;;;5.00;1.90;;;;;;;;;;5052408;28;20437;-75
2021/06/19 11:27:46;;;;;;;4.13;1.70;;;;;;;;;;5052290;28;20338;-75
2021/06/19 11:30:32;;;;;;;3.25;1.83;;;;;;;;;;5052282;28;20017;-75
2021/06/19 11:33:15;;;;;;;3.03;1.50;;;;;;;;;;5030406;28;20168;-77
2021/06/19 11:35:45;;;;;;;2.80;1.48;;;;;;;;;;5052148;28;20730;-75
2021/06/19 11:38:10;;;;;;;3.72;1.60;;;;;;;;;;5052291;28;20390;-74
2021/06/19 11:40:36;;;;;;;2.33;1.75;;;;;;;;;;5052166;28;20012;-76
2021/06/19 11:43:03;;;;;;;4.68;1.92;;;;;;;;;;5055027;28;20045;-75
2021/06/19 11:45:29;;;;;;;6.60;1.60;;;;;;;;;;5038260;28;20032;-76
2021/06/19 11:48:01;;;;;;;2.90;1.60;;;;;;;;;;5056124;28;20021;-76
2021/06/19 11:50:30;;;;;;;4.53;1.60;;;;;;;;;;5055909;28;20029;-75
2021/06/19 11:52:56;;;;;;;5.75;2.22;;;;;;;;;;5037801;28;20450;-76
2021/06/19 11:55:21;;;;;;;2.10;1.83;;;;;;;;;;5038103;28;20103;-76
2021/06/19 11:57:56;;;;;;;4.50;1.75;;;;;;;;;;5055861;28;20385;-74
2021/06/19 12:00:21;;;;;;;3.42;1.52;;;;;;;;;;5055772;28;20021;-76
2021/06/19 12:02:50;;;;;;;5.03;1.58;;;;;;;;;;5055726;28;20013;-75
2021/06/19 12:05:17;;;;;;;4.47;1.90;;;;;;;;;;5055531;28;20096;-75
2021/06/19 12:07:46;;;;;;;4.15;1.83;;;;;;;;;;5037908;28;20103;-75
2021/06/19 12:10:30;;;;;;;6.10;1.95;;;;;;;;;;5055522;28;20441;-75
2021/06/19 12:13:00;;;;;;;4.28;1.70;;;;;;;;;;5055421;28;20040;-76
2021/06/19 12:15:26;;;;;;;3.17;1.70;;;;;;;;;;5056020;28;20377;-76
2021/06/19 12:17:51;;;;;;;5.75;1.63;;;;;;;;;;5055791;28;20092;-76
2021/06/19 12:20:23;;;;;;;2.17;1.58;;;;;;;;;;5055263;28;20045;-76
2021/06/19 12:22:49;;;;;;;4.05;1.50;;;;;;;;;;5055448;28;20070;-75
2021/06/19 12:25:33;;;;;;;1.90;1.58;;;;;;;;;;5055133;28;20504;-75
2021/06/19 12:28:02;;;;;;;3.08;1.60;;;;;;;;;;5055124;28;20452;-76
2021/06/19 12:30:28;;;;;;;3.92;1.58;;;;;;;;;;5055226;28;20029;-76
2021/06/19 12:32:53;;;;;;;5.93;1.65;;;;;;;;;;5055299;28;20019;-77
2021/06/19 12:35:20;;;;;;;1.77;1.40;;;;;;;;;;5037131;28;20534;-76
2021/06/19 12:37:50;;;;;;;1.55;1.45;;;;;;;;;;5055209;28;20067;-75
2021/06/19 12:40:16;;;;;;;2.45;1.45;;;;;;;;;;5054854;28;20009;-76
2021/06/19 12:42:46;;;;;;;2.70;1.38;;;;;;;;;;5054993;28;20400;-75
2021/06/19 12:45:13;;;;;;;4.30;1.55;;;;;;;;;;5054657;28;20021;-76
2021/06/19 12:47:44;;;;;;;6.95;1.50;;;;;;;;;;5054894;28;20013;-73
2021/06/19 12:50:10;;;;;;;4.32;1.80;;;;;;;;;;5026566;28;20010;-74
2021/06/19 12:52:54;;;;;;;3.50;1.80;;;;;;;;;;5035916;28;20494;-73
2021/06/19 12:55:20;;;;;;;3.63;1.70;;;;;;;;;;5034199;28;20104;-72
2021/06/19 12:57:45;;;;;;;4.93;1.92;;;;;;;;;;5034818;28;20167;-72
2021/06/19 13:00:11;;;;;;;5.75;1.80;;;;;;;;;;5034708;28;20018;-72
2021/06/19 13:02:55;;;;;;;3.55;1.67;;;;;;;;;;5035327;28;20056;-72
2021/06/19 13:05:20;;;;;;;4.07;1.65;;;;;;;;;;5035144;28;20062;-72
2021/06/19 13:07:46;;;;;;;2.50;1.58;;;;;;;;;;5034852;28;20018;-77
2021/06/19 13:10:12;;;;;;;4.07;1.80;;;;;;;;;;5048550;28;20029;-75
2021/06/19 13:12:47;;;;;;;2.25;1.77;;;;;;;;;;5034748;28;20104;-74
2021/06/19 13:15:13;;;;;;;2.30;1.42;;;;;;;;;;5046255;28;20032;-75
2021/06/19 13:17:46;;;;;;;2.92;1.52;;;;;;;;;;5038874;28;20021;-73
2021/06/19 13:20:32;;;;;;;3.65;1.50;;;;;;;;;;5037253;28;20042;-74
2021/06/19 13:23:02;;;;;;;1.75;1.60;;;;;;;;;;5034108;28;20378;-73
2021/06/19 13:25:47;;;;;;;2.15;1.38;;;;;;;;;;5034481;28;20025;-73
2021/06/19 13:28:12;;;;;;;1.30;1.20;;;;;;;;;;5029644;28;20025;-71
2021/06/19 13:30:38;;;;;;;2.70;1.67;;;;;;;;;;5030303;28;20468;-71
2021/06/19 13:33:04;;;;;;;1.17;1.08;;;;;;;;;;5033859;28;20024;-72
2021/06/19 13:35:29;;;;;;;1.40;1.27;;;;;;;;;;5034065;28;20417;-71
2021/06/19 13:37:58;;;;;;;1.10;1.00;;;;;;;;;;5034375;28;20100;-71
2021/06/19 13:40:26;;;;;;;2.15;1.45;;;;;;;;;;5034266;28;20017;-70
2021/06/19 13:42:52;;;;;;;;;;;;;;;;;;5034453;28;20017;-71
2021/06/19 13:45:17;;;;;;;3.30;1.60;;;;;;;;;;5033851;28;20361;-72
2021/06/19 13:47:42;;;;;;;2.60;1.50;;;;;;;;;;5033834;28;20477;-71
2021/06/19 13:50:09;;;;;;;5.57;1.50;;;;;;;;;;5034032;28;20029;-72
2021/06/19 13:52:34;;;;;;;1.55;1.40;;;;;;;;;;5033604;28;20021;-71
2021/06/19 13:55:01;;;;;;;7.70;1.75;;;;;;;;;;5032282;28;20018;-72
2021/06/19 13:57:26;;;;;;;5.18;1.65;;;;;;;;;;5033551;28;20013;-70
2021/06/19 13:59:55;;;;;;;2.63;1.40;;;;;;;;;;5033781;28;20021;-70
2021/06/19 14:02:21;;;;;;;2.65;1.55;;;;;;;;;;5033649;28;20021;-71
2021/06/19 14:04:46;;;;;;;5.20;1.27;;;;;;;;;;5031113;28;20026;-70
2021/06/19 14:07:13;;;;;;;2.35;1.73;;;;;;;;;;5032832;28;20406;-71
2021/06/19 14:09:39;;;;;;;2.35;1.55;;;;;;;;;;5033613;28;20492;-70
2021/06/19 14:12:05;;;;;;;4.25;1.40;;;;;;;;;;5033543;28;20029;-71
2021/06/19 14:14:31;;;;;;;2.15;1.48;;;;;;;;;;5033496;28;20021;-70
2021/06/19 14:16:56;;;;;;;5.05;1.83;;;;;;;;;;5033030;28;20032;-71
2021/06/19 14:19:22;;;;;;;4.20;1.85;;;;;;;;;;5033220;28;20028;-71
2021/06/19 14:21:47;;;;;;;1.70;1.30;;;;;;;;;;5033073;28;20096;-71
2021/06/19 14:24:13;;;;;;;6.15;1.60;;;;;;;;;;5033196;28;20450;-70
2021/06/19 14:26:39;;;;;;;2.50;1.73;;;;;;;;;;5033385;28;20014;-71
2021/06/19 14:29:05;;;;;;;2.30;1.45;;;;;;;;;;5032627;28;20440;-71
2021/06/19 14:31:31;;;;;;;2.85;1.73;;;;;;;;;;5033293;28;20060;-71
2021/06/19 14:33:57;;;;;;;5.35;2.20;;;;;;;;;;5033052;28;20045;-71
2021/06/19 14:36:23;;;;;;;4.65;1.85;;;;;;;;;;5033051;28;20076;-71
2021/06/19 14:38:48;;;;;;;2.08;1.58;;;;;;;;;;5032887;28;20028;-70
2021/06/19 14:41:14;;;;;;;2.47;1.80;;;;;;;;;;5032684;28;20100;-71